Flight Track Log - Related Links

Times and Time Zones

All times are in EDT time to prevent confusion due to time zone crossing. See the N211RN flight status page for this flight to view local times or setup timezone preferences in your user account.

Time Position Orientation Groundspeed Altitude Reporting Facility
EDT Latitude Longitude Course Direction KTS MPH feet Rate Location/Type
Sun 01:35:29 PM 41.8167 -87.5000 90° East 264 304 4,300  Level Chicago TRACON
Sun 01:36:37 PM 41.8075 -87.3761 96° East 316 364 9,100 3,277 Climbing Chicago Center
Sun 01:37:39 PM 41.7867 -87.2394 102° East 388 447 11,400 2,565 Climbing Chicago Center
Sun 01:38:41 PM 41.7622 -87.0711 101° East 427 491 14,400 2,952 Climbing Chicago Center
Sun 01:39:43 PM 41.7617 -86.9078 90° East 439 505 17,500 2,592 Climbing Chicago Center
Sun 01:40:00 PM 41.7500 -86.8671 90° East  Level FlightAware Approximate
Sun 01:40:46 PM 41.7653 -86.7597 88° East 438 504 19,800  Level Chicago Center
Sun 01:41:48 PM 41.7658 -86.5678 90° East 465 535 22,000 2,032 Climbing Chicago Center
Sun 01:42:50 PM 41.7672 -86.3844 89° East 489 563 24,000 1,887 Climbing Chicago Center
Sun 01:43:52 PM 41.7608 -86.1953 93° East 503 579 25,900 2,081 Climbing Chicago Center
Sun 01:44:54 PM 41.7450 -85.9653 95° East 515 593 28,300 2,032 Climbing Chicago Center
Sun 01:45:56 PM 41.7058 -85.7783 106° East 526 605 30,100 1,694 Climbing Chicago Center
Sun 01:46:58 PM 41.6831 -85.5875 99° East 518 596 31,800 1,548 Climbing Chicago Center
Sun 01:48:00 PM 41.6794 -85.4103 92° East 515 593 33,300 1,452 Climbing Chicago Center
Sun 01:49:02 PM 41.6772 -85.1806 91° East 537 618 34,800 816 Climbing Chicago Center
Sun 01:50:05 PM 41.6725 -84.9831 92° East 538 619 35,000 106 Climbing Chicago Center
Sun 01:50:55 PM 41.6678 -84.8228 92° East 539 620 35,000  Level Cleveland Center
Sun 01:51:57 PM 41.6506 -84.6231 97° East 540 621 35,000  Level Cleveland Center
Sun 01:52:59 PM 41.6131 -84.4239 104° East 552 635 35,000  Level Cleveland Center
Sun 01:54:01 PM 41.5747 -84.2092 103° East 552 635 35,000  Level Cleveland Center
Sun 01:55:02 PM 41.5406 -84.0131 103° East 551 634 35,000 49 Level Cleveland Center
Sun 01:56:04 PM 41.4969 -83.7761 104° East 551 634 35,100  Climbing Cleveland Center
Sun 01:57:06 PM 41.4608 -83.5789 104° East 551 634 35,000 -48 Descending Cleveland Center
Sun 01:58:08 PM 41.4242 -83.3814 104° East 551 634 35,000  Level Cleveland Center
Sun 01:59:10 PM 41.3825 -83.1567 104° East 555 639 35,000  Level Cleveland Center
Sun 02:00:12 PM 41.3439 -82.9547 104° East 556 640 35,000 -290 Level Cleveland Center
Sun 02:01:14 PM 41.3050 -82.7528 104° East 559 643 34,400 -780 Descending Cleveland Center
Sun 02:02:15 PM 41.2664 -82.5508 104° East 559 643 33,400 -976 Descending Cleveland Center
Sun 02:03:17 PM 41.2261 -82.3475 105° East 563 648 32,400 -968 Descending Cleveland Center
Sun 02:04:19 PM 41.1858 -82.1453 105° East 563 648 31,400 -1,016 Descending Cleveland Center
Sun 02:05:21 PM 41.1408 -81.9228 105° East 569 655 30,300 -1,065 Descending Cleveland Center
Sun 02:06:23 PM 41.0972 -81.7042 105° East 574 661 29,200 -1,016 Descending Cleveland Center
Sun 02:07:25 PM 41.0553 -81.4997 105° East 576 663 28,200 -968 Descending Cleveland Center
Sun 02:08:27 PM 41.0122 -81.2950 106° East 576 663 27,200 -1,790 Descending Cleveland Center
Sun 02:09:29 PM 40.9697 -81.0911 105° East 576 663 24,500 -3,339 Descending Cleveland Center
Sun 02:10:31 PM 40.9247 -80.8703 105° East 554 638 20,300 -3,823 Descending Cleveland Center
Sun 02:11:33 PM 40.8867 -80.6981 106° East 494 568 16,600 -3,726 Descending Cleveland Center
Sun 02:12:35 PM 40.8147 -80.5536 123° Southeast 449 517 12,600 -2,855 Descending Cleveland Center
Sun 02:13:37 PM 40.7422 -80.4383 130° Southeast 406 467 10,700 -1,258 Descending Cleveland Center
Sun 02:14:39 PM 40.6800 -80.3431 131° Southeast 385 443 10,000 -726 Descending Cleveland Center
Sun 02:15:41 PM 40.6022 -80.2219 130° Southeast 366 421 9,200 -1,355 Descending Cleveland Center
Sun 02:16:43 PM 40.5431 -80.1306 130° Southeast 335 386 7,200 -1,935 Descending Cleveland Center
Sun 02:17:45 PM 40.4906 -80.0492 130° Southeast 297 342 5,200 -1,597 Descending Cleveland Center
Sun 02:18:47 PM 40.4394 -79.9692 130° Southeast 266 306 3,900 -1,210 Descending Cleveland Center
Sun 02:19:49 PM 40.3975 -79.9131 134° Southeast 224 258 2,700 -1,065 Descending Cleveland Center
Sun 02:20:51 PM 40.3556 -79.8983 165° South 186 214 1,700 -726 Descending Cleveland Center
Sun 02:21:53 PM 40.3536 -79.9392 266° West 174 200 1,200 -484 Descending Cleveland Center
Sun 02:23:00 PM 40.3544 -79.9290 123° Southeast  Level Estimated

Login

Don't have an account? Register now (free) for customized features, flight alerts, and more!